sensor_id;sensor_type;location;lat;lon;timestamp;temperature;humidity
2477;DHT22;1249;51.270;6.756;2023-03-14T00:01:28;15.10;99.90
2477;DHT22;1249;51.270;6.756;2023-03-14T00:03:56;15.00;99.90
2477;DHT22;1249;51.270;6.756;2023-03-14T00:06:23;15.00;99.90
2477;DHT22;1249;51.270;6.756;2023-03-14T00:08:50;15.00;99.90
2477;DHT22;1249;51.270;6.756;2023-03-14T00:11:19;15.00;99.90
2477;DHT22;1249;51.270;6.756;2023-03-14T00:13:47;15.00;99.90
2477;DHT22;1249;51.270;6.756;2023-03-14T00:16:14;15.00;99.90
2477;DHT22;1249;51.270;6.756;2023-03-14T00:18:41;15.00;99.90
2477;DHT22;1249;51.270;6.756;2023-03-14T00:21:10;15.00;99.90
2477;DHT22;1249;51.270;6.756;2023-03-14T00:23:39;15.00;99.90
2477;DHT22;1249;51.270;6.756;2023-03-14T00:26:07;15.10;99.90
2477;DHT22;1249;51.270;6.756;2023-03-14T00:28:38;15.00;99.90
2477;DHT22;1249;51.270;6.756;2023-03-14T00:31:06;15.00;99.90
2477;DHT22;1249;51.270;6.756;2023-03-14T00:33:33;15.00;99.90
2477;DHT22;1249;51.270;6.756;2023-03-14T00:36:03;15.00;99.90
2477;DHT22;1249;51.270;6.756;2023-03-14T00:38:32;15.00;99.90
2477;DHT22;1249;51.270;6.756;2023-03-14T00:40:59;15.00;99.90
2477;DHT22;1249;51.270;6.756;2023-03-14T00:43:29;14.90;99.90
2477;DHT22;1249;51.270;6.756;2023-03-14T00:45:55;14.90;99.90
2477;DHT22;1249;51.270;6.756;2023-03-14T00:48:23;15.10;99.90
2477;DHT22;1249;51.270;6.756;2023-03-14T00:50:50;14.90;99.90
2477;DHT22;1249;51.270;6.756;2023-03-14T00:53:17;14.80;99.90
2477;DHT22;1249;51.270;6.756;2023-03-14T00:55:45;14.90;99.90
2477;DHT22;1249;51.270;6.756;2023-03-14T00:58:13;14.70;99.90
2477;DHT22;1249;51.270;6.756;2023-03-14T01:00:40;14.70;99.90
2477;DHT22;1249;51.270;6.756;2023-03-14T01:03:08;14.60;99.90
2477;DHT22;1249;51.270;6.756;2023-03-14T01:05:35;14.60;99.90
2477;DHT22;1249;51.270;6.756;2023-03-14T01:08:03;14.60;99.90
2477;DHT22;1249;51.270;6.756;2023-03-14T01:10:30;14.50;99.90
2477;DHT22;1249;51.270;6.756;2023-03-14T01:12:58;14.50;99.90
2477;DHT22;1249;51.270;6.756;2023-03-14T01:15:25;14.50;99.90
2477;DHT22;1249;51.270;6.756;2023-03-14T01:17:52;14.50;99.90
2477;DHT22;1249;51.270;6.756;2023-03-14T01:20:19;14.40;99.90
2477;DHT22;1249;51.270;6.756;2023-03-14T01:22:46;14.50;99.90
2477;DHT22;1249;51.270;6.756;2023-03-14T01:25:14;14.40;99.90
2477;DHT22;1249;51.270;6.756;2023-03-14T01:27:42;14.40;99.90
2477;DHT22;1249;51.270;6.756;2023-03-14T01:30:12;14.50;99.90
2477;DHT22;1249;51.270;6.756;2023-03-14T01:32:39;14.40;99.90
2477;DHT22;1249;51.270;6.756;2023-03-14T01:35:07;14.30;99.90
2477;DHT22;1249;51.270;6.756;2023-03-14T01:37:33;14.30;99.90
2477;DHT22;1249;51.270;6.756;2023-03-14T01:40:00;14.30;99.90
2477;DHT22;1249;51.270;6.756;2023-03-14T01:42:29;14.20;99.90
2477;DHT22;1249;51.270;6.756;2023-03-14T01:44:57;14.20;99.90
2477;DHT22;1249;51.270;6.756;2023-03-14T01:47:25;14.20;99.90
2477;DHT22;1249;51.270;6.756;2023-03-14T01:49:55;14.20;99.90
2477;DHT22;1249;51.270;6.756;2023-03-14T01:52:26;14.10;99.90
2477;DHT22;1249;51.270;6.756;2023-03-14T01:54:57;14.30;99.90
2477;DHT22;1249;51.270;6.756;2023-03-14T01:57:29;14.20;99.90
2477;DHT22;1249;51.270;6.756;2023-03-14T01:59:59;14.20;99.90
2477;DHT22;1249;51.270;6.756;2023-03-14T02:02:30;14.10;99.90
2477;DHT22;1249;51.270;6.756;2023-03-14T02:04:59;14.10;99.90
2477;DHT22;1249;51.270;6.756;2023-03-14T02:07:32;14.10;99.90
2477;DHT22;1249;51.270;6.756;2023-03-14T02:10:02;14.10;99.90
2477;DHT22;1249;51.270;6.756;2023-03-14T02:12:29;14.10;99.90
2477;DHT22;1249;51.270;6.756;2023-03-14T02:14:56;14.10;99.90
2477;DHT22;1249;51.270;6.756;2023-03-14T02:17:24;14.10;99.90
2477;DHT22;1249;51.270;6.756;2023-03-14T02:20:09;14.10;99.90
2477;DHT22;1249;51.270;6.756;2023-03-14T02:22:38;14.10;99.90
2477;DHT22;1249;51.270;6.756;2023-03-14T02:25:08;14.00;99.90
2477;DHT22;1249;51.270;6.756;2023-03-14T02:27:39;14.00;99.90
2477;DHT22;1249;51.270;6.756;2023-03-14T02:30:08;14.00;99.90
2477;DHT22;1249;51.270;6.756;2023-03-14T02:32:38;14.00;99.90
2477;DHT22;1249;51.270;6.756;2023-03-14T02:35:09;14.00;99.90
2477;DHT22;1249;51.270;6.756;2023-03-14T02:37:41;14.00;99.90
2477;DHT22;1249;51.270;6.756;2023-03-14T02:40:10;14.20;99.90
2477;DHT22;1249;51.270;6.756;2023-03-14T02:42:36;14.00;99.90
2477;DHT22;1249;51.270;6.756;2023-03-14T02:45:36;14.00;99.90
2477;DHT22;1249;51.270;6.756;2023-03-14T02:48:06;14.00;99.90
2477;DHT22;1249;51.270;6.756;2023-03-14T02:50:34;14.00;99.90
2477;DHT22;1249;51.270;6.756;2023-03-14T02:53:01;14.00;99.90
2477;DHT22;1249;51.270;6.756;2023-03-14T02:55:28;14.00;99.90
2477;DHT22;1249;51.270;6.756;2023-03-14T02:57:54;13.90;99.90
2477;DHT22;1249;51.270;6.756;2023-03-14T03:00:21;13.90;99.90
2477;DHT22;1249;51.270;6.756;2023-03-14T03:02:49;13.90;99.90
2477;DHT22;1249;51.270;6.756;2023-03-14T03:05:16;13.90;99.90
2477;DHT22;1249;51.270;6.756;2023-03-14T03:07:43;13.90;99.90
2477;DHT22;1249;51.270;6.756;2023-03-14T03:10:11;13.90;99.90
2477;DHT22;1249;51.270;6.756;2023-03-14T03:12:37;13.80;99.90
2477;DHT22;1249;51.270;6.756;2023-03-14T03:15:05;13.90;99.90
2477;DHT22;1249;51.270;6.756;2023-03-14T03:17:32;13.90;99.90
2477;DHT22;1249;51.270;6.756;2023-03-14T03:20:00;13.90;99.90
2477;DHT22;1249;51.270;6.756;2023-03-14T03:22:29;13.90;99.90
2477;DHT22;1249;51.270;6.756;2023-03-14T03:24:55;14.10;99.90
2477;DHT22;1249;51.270;6.756;2023-03-14T03:27:22;13.90;99.90
2477;DHT22;1249;51.270;6.756;2023-03-14T03:29:49;13.90;99.90
2477;DHT22;1249;51.270;6.756;2023-03-14T03:32:16;13.90;99.90
2477;DHT22;1249;51.270;6.756;2023-03-14T03:34:42;13.90;99.90
2477;DHT22;1249;51.270;6.756;2023-03-14T03:37:10;13.90;99.90
2477;DHT22;1249;51.270;6.756;2023-03-14T03:39:37;13.80;99.90
2477;DHT22;1249;51.270;6.756;2023-03-14T03:42:04;13.90;99.90
2477;DHT22;1249;51.270;6.756;2023-03-14T03:44:31;13.80;99.90
2477;DHT22;1249;51.270;6.756;2023-03-14T03:46:58;13.80;99.90
2477;DHT22;1249;51.270;6.756;2023-03-14T03:49:28;13.70;99.90
2477;DHT22;1249;51.270;6.756;2023-03-14T03:51:55;13.70;99.90
2477;DHT22;1249;51.270;6.756;2023-03-14T03:54:23;13.80;99.90
2477;DHT22;1249;51.270;6.756;2023-03-14T03:56:50;13.70;99.90
2477;DHT22;1249;51.270;6.756;2023-03-14T03:59:17;13.70;99.90
2477;DHT22;1249;51.270;6.756;2023-03-14T04:01:44;13.70;99.90
2477;DHT22;1249;51.270;6.756;2023-03-14T04:04:11;13.60;99.90
2477;DHT22;1249;51.270;6.756;2023-03-14T04:06:38;13.60;99.90
2477;DHT22;1249;51.270;6.756;2023-03-14T04:09:04;13.70;99.90
2477;DHT22;1249;51.270;6.756;2023-03-14T04:11:32;13.60;99.90
2477;DHT22;1249;51.270;6.756;2023-03-14T04:13:59;13.60;99.90
2477;DHT22;1249;51.270;6.756;2023-03-14T04:16:26;13.70;99.90
2477;DHT22;1249;51.270;6.756;2023-03-14T04:18:53;13.70;99.90
2477;DHT22;1249;51.270;6.756;2023-03-14T04:21:20;13.60;99.90
2477;DHT22;1249;51.270;6.756;2023-03-14T04:23:46;13.60;99.90
2477;DHT22;1249;51.270;6.756;2023-03-14T04:26:13;13.80;99.90
2477;DHT22;1249;51.270;6.756;2023-03-14T04:28:42;13.60;99.90
2477;DHT22;1249;51.270;6.756;2023-03-14T04:31:10;13.60;99.90
2477;DHT22;1249;51.270;6.756;2023-03-14T04:33:37;13.60;99.90
2477;DHT22;1249;51.270;6.756;2023-03-14T04:36:05;13.60;99.90
2477;DHT22;1249;51.270;6.756;2023-03-14T04:38:32;13.50;99.90
2477;DHT22;1249;51.270;6.756;2023-03-14T04:40:59;13.50;99.90
2477;DHT22;1249;51.270;6.756;2023-03-14T04:43:26;13.50;99.90
2477;DHT22;1249;51.270;6.756;2023-03-14T04:45:55;13.50;99.90
2477;DHT22;1249;51.270;6.756;2023-03-14T04:48:23;13.50;99.90
2477;DHT22;1249;51.270;6.756;2023-03-14T04:50:50;13.40;99.90
2477;DHT22;1249;51.270;6.756;2023-03-14T04:53:18;13.50;99.90
2477;DHT22;1249;51.270;6.756;2023-03-14T04:55:48;13.50;99.90
2477;DHT22;1249;51.270;6.756;2023-03-14T04:58:15;13.50;99.90
2477;DHT22;1249;51.270;6.756;2023-03-14T05:00:42;13.50;99.90
2477;DHT22;1249;51.270;6.756;2023-03-14T05:03:10;13.50;99.90
2477;DHT22;1249;51.270;6.756;2023-03-14T05:05:37;13.50;99.90
2477;DHT22;1249;51.270;6.756;2023-03-14T05:08:03;13.60;99.90
2477;DHT22;1249;51.270;6.756;2023-03-14T05:10:30;13.60;99.90
2477;DHT22;1249;51.270;6.756;2023-03-14T05:12:57;13.50;99.90
2477;DHT22;1249;51.270;6.756;2023-03-14T05:15:24;13.50;99.90
2477;DHT22;1249;51.270;6.756;2023-03-14T05:17:51;13.50;99.90
2477;DHT22;1249;51.270;6.756;2023-03-14T05:20:20;13.40;99.90
2477;DHT22;1249;51.270;6.756;2023-03-14T05:22:47;13.50;99.90
2477;DHT22;1249;51.270;6.756;2023-03-14T05:25:14;13.50;99.90
2477;DHT22;1249;51.270;6.756;2023-03-14T05:27:41;13.50;99.90
2477;DHT22;1249;51.270;6.756;2023-03-14T05:30:09;13.50;99.90
2477;DHT22;1249;51.270;6.756;2023-03-14T05:32:36;13.40;99.90
2477;DHT22;1249;51.270;6.756;2023-03-14T05:35:03;13.50;99.90
2477;DHT22;1249;51.270;6.756;2023-03-14T05:37:31;13.50;99.90
2477;DHT22;1249;51.270;6.756;2023-03-14T05:40:00;13.40;99.90
2477;DHT22;1249;51.270;6.756;2023-03-14T05:42:30;13.40;99.90
2477;DHT22;1249;51.270;6.756;2023-03-14T05:44:57;13.40;99.90
2477;DHT22;1249;51.270;6.756;2023-03-14T05:47:23;13.50;99.90
2477;DHT22;1249;51.270;6.756;2023-03-14T05:49:50;13.40;99.90
2477;DHT22;1249;51.270;6.756;2023-03-14T05:52:17;13.40;99.90
2477;DHT22;1249;51.270;6.756;2023-03-14T05:54:45;13.60;99.90
2477;DHT22;1249;51.270;6.756;2023-03-14T05:57:12;13.60;99.90
2477;DHT22;1249;51.270;6.756;2023-03-14T05:59:39;13.40;99.90
2477;DHT22;1249;51.270;6.756;2023-03-14T06:02:06;13.40;99.90
2477;DHT22;1249;51.270;6.756;2023-03-14T06:04:32;13.40;99.90
2477;DHT22;1249;51.270;6.756;2023-03-14T06:06:59;13.50;99.90
2477;DHT22;1249;51.270;6.756;2023-03-14T06:09:26;13.40;99.90
2477;DHT22;1249;51.270;6.756;2023-03-14T06:11:54;13.40;99.90
2477;DHT22;1249;51.270;6.756;2023-03-14T06:14:21;13.40;99.90
2477;DHT22;1249;51.270;6.756;2023-03-14T06:16:47;13.40;99.90
2477;DHT22;1249;51.270;6.756;2023-03-14T06:19:14;13.40;99.90
2477;DHT22;1249;51.270;6.756;2023-03-14T06:21:41;13.40;99.90
2477;DHT22;1249;51.270;6.756;2023-03-14T06:24:08;13.40;99.90
2477;DHT22;1249;51.270;6.756;2023-03-14T06:26:35;13.50;99.90
2477;DHT22;1249;51.270;6.756;2023-03-14T06:29:03;13.50;99.90
2477;DHT22;1249;51.270;6.756;2023-03-14T06:31:30;13.50;99.90
2477;DHT22;1249;51.270;6.756;2023-03-14T06:33:57;13.50;99.90
2477;DHT22;1249;51.270;6.756;2023-03-14T06:36:24;13.50;99.90
2477;DHT22;1249;51.270;6.756;2023-03-14T06:38:51;13.50;99.90
2477;DHT22;1249;51.270;6.756;2023-03-14T06:41:18;13.50;99.90
2477;DHT22;1249;51.270;6.756;2023-03-14T06:43:45;13.50;99.90
2477;DHT22;1249;51.270;6.756;2023-03-14T06:46:13;13.50;99.90
2477;DHT22;1249;51.270;6.756;2023-03-14T06:48:40;13.50;99.90
2477;DHT22;1249;51.270;6.756;2023-03-14T06:51:07;13.60;99.90
2477;DHT22;1249;51.270;6.756;2023-03-14T06:53:34;13.70;99.90
2477;DHT22;1249;51.270;6.756;2023-03-14T06:56:01;13.80;99.90
2477;DHT22;1249;51.270;6.756;2023-03-14T06:58:28;14.00;99.90
2477;DHT22;1249;51.270;6.756;2023-03-14T07:00:54;14.20;99.90
2477;DHT22;1249;51.270;6.756;2023-03-14T07:03:23;14.40;99.90
2477;DHT22;1249;51.270;6.756;2023-03-14T07:05:50;14.60;99.90
2477;DHT22;1249;51.270;6.756;2023-03-14T07:08:16;14.70;99.90
2477;DHT22;1249;51.270;6.756;2023-03-14T07:10:43;14.80;99.90
2477;DHT22;1249;51.270;6.756;2023-03-14T07:13:10;14.80;99.90
2477;DHT22;1249;51.270;6.756;2023-03-14T07:15:37;14.90;99.90
2477;DHT22;1249;51.270;6.756;2023-03-14T07:18:04;15.00;99.90
2477;DHT22;1249;51.270;6.756;2023-03-14T07:20:32;15.10;99.90
2477;DHT22;1249;51.270;6.756;2023-03-14T07:22:58;15.20;99.90
2477;DHT22;1249;51.270;6.756;2023-03-14T07:25:28;15.20;99.90
2477;DHT22;1249;51.270;6.756;2023-03-14T07:27:55;15.30;99.90
2477;DHT22;1249;51.270;6.756;2023-03-14T07:30:21;15.40;99.90
2477;DHT22;1249;51.270;6.756;2023-03-14T07:32:48;15.50;99.90
2477;DHT22;1249;51.270;6.756;2023-03-14T07:35:15;15.60;99.90
2477;DHT22;1249;51.270;6.756;2023-03-14T07:37:43;15.70;99.90
2477;DHT22;1249;51.270;6.756;2023-03-14T07:40:10;15.70;99.90
2477;DHT22;1249;51.270;6.756;2023-03-14T07:42:40;15.70;99.90
2477;DHT22;1249;51.270;6.756;2023-03-14T07:45:08;15.70;99.90
2477;DHT22;1249;51.270;6.756;2023-03-14T07:47:36;15.80;99.90
2477;DHT22;1249;51.270;6.756;2023-03-14T07:50:03;15.70;99.90
2477;DHT22;1249;51.270;6.756;2023-03-14T07:52:30;15.40;99.90
2477;DHT22;1249;51.270;6.756;2023-03-14T07:54:58;15.20;99.90
2477;DHT22;1249;51.270;6.756;2023-03-14T07:57:25;15.00;99.90
2477;DHT22;1249;51.270;6.756;2023-03-14T07:59:52;14.80;99.90
2477;DHT22;1249;51.270;6.756;2023-03-14T08:02:18;14.80;99.90
2477;DHT22;1249;51.270;6.756;2023-03-14T08:04:47;14.70;99.90
2477;DHT22;1249;51.270;6.756;2023-03-14T08:07:14;14.70;99.90
2477;DHT22;1249;51.270;6.756;2023-03-14T08:09:41;14.50;99.90
2477;DHT22;1249;51.270;6.756;2023-03-14T08:12:09;14.50;99.90
2477;DHT22;1249;51.270;6.756;2023-03-14T08:14:36;14.30;99.90
2477;DHT22;1249;51.270;6.756;2023-03-14T08:17:03;14.30;99.90
2477;DHT22;1249;51.270;6.756;2023-03-14T08:19:30;14.40;99.90
2477;DHT22;1249;51.270;6.756;2023-03-14T08:21:57;14.40;99.90
2477;DHT22;1249;51.270;6.756;2023-03-14T08:24:24;14.40;99.90
2477;DHT22;1249;51.270;6.756;2023-03-14T08:26:50;14.40;99.90
2477;DHT22;1249;51.270;6.756;2023-03-14T08:29:19;14.30;99.90
2477;DHT22;1249;51.270;6.756;2023-03-14T08:31:45;14.20;99.90
2477;DHT22;1249;51.270;6.756;2023-03-14T08:34:14;14.60;99.90
2477;DHT22;1249;51.270;6.756;2023-03-14T08:36:41;14.90;99.90
2477;DHT22;1249;51.270;6.756;2023-03-14T08:39:07;15.20;99.90
2477;DHT22;1249;51.270;6.756;2023-03-14T08:41:35;15.40;99.90
2477;DHT22;1249;51.270;6.756;2023-03-14T08:44:05;15.60;99.90
2477;DHT22;1249;51.270;6.756;2023-03-14T08:46:34;15.70;99.90
2477;DHT22;1249;51.270;6.756;2023-03-14T08:49:01;15.90;99.90
2477;DHT22;1249;51.270;6.756;2023-03-14T08:51:28;15.60;99.90
2477;DHT22;1249;51.270;6.756;2023-03-14T08:53:55;15.40;99.90
2477;DHT22;1249;51.270;6.756;2023-03-14T08:56:21;15.30;99.90
2477;DHT22;1249;51.270;6.756;2023-03-14T08:58:48;15.20;99.90
2477;DHT22;1249;51.270;6.756;2023-03-14T09:01:15;15.10;99.90
2477;DHT22;1249;51.270;6.756;2023-03-14T09:03:45;14.90;99.90
2477;DHT22;1249;51.270;6.756;2023-03-14T09:06:13;14.80;99.90
2477;DHT22;1249;51.270;6.756;2023-03-14T09:08:43;14.80;99.90
2477;DHT22;1249;51.270;6.756;2023-03-14T09:11:10;14.80;99.90
2477;DHT22;1249;51.270;6.756;2023-03-14T09:13:37;14.70;99.90
2477;DHT22;1249;51.270;6.756;2023-03-14T09:16:05;14.60;99.90
2477;DHT22;1249;51.270;6.756;2023-03-14T09:18:32;14.40;99.90
2477;DHT22;1249;51.270;6.756;2023-03-14T09:21:00;14.30;99.90
2477;DHT22;1249;51.270;6.756;2023-03-14T09:23:27;14.00;99.90
2477;DHT22;1249;51.270;6.756;2023-03-14T09:25:54;13.90;99.90
2477;DHT22;1249;51.270;6.756;2023-03-14T09:28:21;13.80;99.90
2477;DHT22;1249;51.270;6.756;2023-03-14T09:30:48;13.70;99.90
2477;DHT22;1249;51.270;6.756;2023-03-14T09:33:15;13.30;99.90
2477;DHT22;1249;51.270;6.756;2023-03-14T09:35:42;13.40;99.90
2477;DHT22;1249;51.270;6.756;2023-03-14T09:38:10;13.30;99.90
2477;DHT22;1249;51.270;6.756;2023-03-14T09:40:40;13.40;99.90
2477;DHT22;1249;51.270;6.756;2023-03-14T09:43:10;13.10;99.90
2477;DHT22;1249;51.270;6.756;2023-03-14T09:45:39;13.10;99.90
2477;DHT22;1249;51.270;6.756;2023-03-14T09:48:13;13.10;99.90
2477;DHT22;1249;51.270;6.756;2023-03-14T09:50:44;13.20;99.90
2477;DHT22;1249;51.270;6.756;2023-03-14T09:53:15;13.20;99.90
2477;DHT22;1249;51.270;6.756;2023-03-14T09:55:45;13.20;99.90
2477;DHT22;1249;51.270;6.756;2023-03-14T09:58:15;13.10;99.90
2477;DHT22;1249;51.270;6.756;2023-03-14T10:00:42;13.20;99.90
2477;DHT22;1249;51.270;6.756;2023-03-14T10:03:22;13.30;99.90
2477;DHT22;1249;51.270;6.756;2023-03-14T10:05:50;13.30;99.90
2477;DHT22;1249;51.270;6.756;2023-03-14T10:08:19;13.40;99.90
2477;DHT22;1249;51.270;6.756;2023-03-14T10:10:45;13.20;99.90
2477;DHT22;1249;51.270;6.756;2023-03-14T10:13:15;13.20;99.90
2477;DHT22;1249;51.270;6.756;2023-03-14T10:15:47;13.30;99.90
2477;DHT22;1249;51.270;6.756;2023-03-14T10:18:14;13.30;99.90
2477;DHT22;1249;51.270;6.756;2023-03-14T10:20:43;13.40;99.90
2477;DHT22;1249;51.270;6.756;2023-03-14T10:23:23;13.30;99.90
2477;DHT22;1249;51.270;6.756;2023-03-14T10:26:00;13.40;99.90
2477;DHT22;1249;51.270;6.756;2023-03-14T10:28:31;13.40;99.90
2477;DHT22;1249;51.270;6.756;2023-03-14T10:30:59;13.50;99.90
2477;DHT22;1249;51.270;6.756;2023-03-14T10:33:27;13.50;99.90
2477;DHT22;1249;51.270;6.756;2023-03-14T10:35:56;13.40;99.90
2477;DHT22;1249;51.270;6.756;2023-03-14T10:38:27;13.40;99.90
2477;DHT22;1249;51.270;6.756;2023-03-14T10:40:54;13.50;99.90
2477;DHT22;1249;51.270;6.756;2023-03-14T10:43:25;13.50;99.90
2477;DHT22;1249;51.270;6.756;2023-03-14T10:45:54;13.40;99.90
2477;DHT22;1249;51.270;6.756;2023-03-14T10:48:29;13.30;99.90
2477;DHT22;1249;51.270;6.756;2023-03-14T10:50:59;13.30;99.90
2477;DHT22;1249;51.270;6.756;2023-03-14T10:53:33;13.20;99.90
2477;DHT22;1249;51.270;6.756;2023-03-14T10:56:02;13.00;99.90
2477;DHT22;1249;51.270;6.756;2023-03-14T10:58:40;13.00;99.90
2477;DHT22;1249;51.270;6.756;2023-03-14T11:01:23;13.10;99.90
2477;DHT22;1249;51.270;6.756;2023-03-14T11:03:56;13.10;99.90
2477;DHT22;1249;51.270;6.756;2023-03-14T11:06:30;13.20;99.90
2477;DHT22;1249;51.270;6.756;2023-03-14T11:09:05;13.10;99.90
2477;DHT22;1249;51.270;6.756;2023-03-14T11:11:35;13.10;99.90
2477;DHT22;1249;51.270;6.756;2023-03-14T11:14:12;13.10;99.90
2477;DHT22;1249;51.270;6.756;2023-03-14T11:16:51;13.10;99.90
2477;DHT22;1249;51.270;6.756;2023-03-14T11:19:34;13.00;99.90
2477;DHT22;1249;51.270;6.756;2023-03-14T11:22:08;13.00;99.90
2477;DHT22;1249;51.270;6.756;2023-03-14T11:24:54;12.90;99.90
2477;DHT22;1249;51.270;6.756;2023-03-14T11:27:30;13.00;99.90
2477;DHT22;1249;51.270;6.756;2023-03-14T11:30:04;12.90;99.90
2477;DHT22;1249;51.270;6.756;2023-03-14T11:32:38;12.90;99.90
2477;DHT22;1249;51.270;6.756;2023-03-14T11:35:16;13.00;99.90
2477;DHT22;1249;51.270;6.756;2023-03-14T11:37:46;13.10;99.90
2477;DHT22;1249;51.270;6.756;2023-03-14T11:40:18;13.10;99.90
2477;DHT22;1249;51.270;6.756;2023-03-14T11:42:49;13.10;99.90
2477;DHT22;1249;51.270;6.756;2023-03-14T11:45:22;13.30;99.90
2477;DHT22;1249;51.270;6.756;2023-03-14T11:48:05;13.30;99.90
2477;DHT22;1249;51.270;6.756;2023-03-14T11:53:07;13.80;99.90
2477;DHT22;1249;51.270;6.756;2023-03-14T11:55:39;13.90;99.90
2477;DHT22;1249;51.270;6.756;2023-03-14T11:58:13;13.90;99.90
2477;DHT22;1249;51.270;6.756;2023-03-14T12:00:41;13.80;99.90
2477;DHT22;1249;51.270;6.756;2023-03-14T12:03:14;13.70;99.90
2477;DHT22;1249;51.270;6.756;2023-03-14T12:05:48;13.50;99.90
2477;DHT22;1249;51.270;6.756;2023-03-14T12:08:33;13.30;99.90
2477;DHT22;1249;51.270;6.756;2023-03-14T12:11:12;13.20;99.90
2477;DHT22;1249;51.270;6.756;2023-03-14T12:13:40;13.20;99.90
2477;DHT22;1249;51.270;6.756;2023-03-14T12:16:19;13.20;99.90
2477;DHT22;1249;51.270;6.756;2023-03-14T12:18:49;13.50;99.90
2477;DHT22;1249;51.270;6.756;2023-03-14T12:21:16;14.10;99.90
2477;DHT22;1249;51.270;6.756;2023-03-14T12:23:45;14.60;99.90
2477;DHT22;1249;51.270;6.756;2023-03-14T12:26:18;14.70;99.90
2477;DHT22;1249;51.270;6.756;2023-03-14T12:31:36;15.50;99.90
2477;DHT22;1249;51.270;6.756;2023-03-14T12:34:04;15.50;99.90
2477;DHT22;1249;51.270;6.756;2023-03-14T12:36:59;15.40;99.90
2477;DHT22;1249;51.270;6.756;2023-03-14T12:39:45;15.40;99.90
2477;DHT22;1249;51.270;6.756;2023-03-14T12:42:20;15.30;99.90
2477;DHT22;1249;51.270;6.756;2023-03-14T12:44:49;15.20;99.90
2477;DHT22;1249;51.270;6.756;2023-03-14T12:50:26;14.80;99.90
2477;DHT22;1249;51.270;6.756;2023-03-14T12:53:19;14.40;99.90
2477;DHT22;1249;51.270;6.756;2023-03-14T12:55:52;13.80;99.90
2477;DHT22;1249;51.270;6.756;2023-03-14T12:58:28;13.70;99.90
2477;DHT22;1249;51.270;6.756;2023-03-14T13:00:59;13.20;99.90
2477;DHT22;1249;51.270;6.756;2023-03-14T13:03:36;13.20;99.90
2477;DHT22;1249;51.270;6.756;2023-03-14T13:06:04;13.10;99.90
2477;DHT22;1249;51.270;6.756;2023-03-14T13:08:36;13.20;99.90
2477;DHT22;1249;51.270;6.756;2023-03-14T13:11:08;13.40;99.90
2477;DHT22;1249;51.270;6.756;2023-03-14T13:13:42;13.40;99.90
2477;DHT22;1249;51.270;6.756;2023-03-14T13:16:15;13.40;99.90
2477;DHT22;1249;51.270;6.756;2023-03-14T13:18:43;13.40;99.90
2477;DHT22;1249;51.270;6.756;2023-03-14T13:21:13;13.40;99.90
2477;DHT22;1249;51.270;6.756;2023-03-14T13:23:54;13.70;99.90
2477;DHT22;1249;51.270;6.756;2023-03-14T13:26:20;14.70;99.90
2477;DHT22;1249;51.270;6.756;2023-03-14T13:28:49;15.10;99.90
2477;DHT22;1249;51.270;6.756;2023-03-14T13:31:21;15.30;99.90
2477;DHT22;1249;51.270;6.756;2023-03-14T13:34:00;15.50;99.90
2477;DHT22;1249;51.270;6.756;2023-03-14T13:36:27;15.70;99.90
2477;DHT22;1249;51.270;6.756;2023-03-14T13:38:57;15.70;99.90
2477;DHT22;1249;51.270;6.756;2023-03-14T13:41:25;15.20;99.90
2477;DHT22;1249;51.270;6.756;2023-03-14T13:44:01;14.60;99.90
2477;DHT22;1249;51.270;6.756;2023-03-14T13:46:29;14.20;99.90
2477;DHT22;1249;51.270;6.756;2023-03-14T13:48:58;13.90;99.90
2477;DHT22;1249;51.270;6.756;2023-03-14T13:51:25;13.90;99.90
2477;DHT22;1249;51.270;6.756;2023-03-14T13:53:55;13.90;99.90
2477;DHT22;1249;51.270;6.756;2023-03-14T13:56:24;13.90;99.90
2477;DHT22;1249;51.270;6.756;2023-03-14T13:58:52;14.00;99.90
2477;DHT22;1249;51.270;6.756;2023-03-14T14:01:21;14.00;99.90
2477;DHT22;1249;51.270;6.756;2023-03-14T14:03:51;14.20;99.90
2477;DHT22;1249;51.270;6.756;2023-03-14T14:06:30;14.40;99.90
2477;DHT22;1249;51.270;6.756;2023-03-14T14:08:59;14.90;99.90
2477;DHT22;1249;51.270;6.756;2023-03-14T14:11:36;15.20;99.90
2477;DHT22;1249;51.270;6.756;2023-03-14T14:14:10;16.30;99.90
2477;DHT22;1249;51.270;6.756;2023-03-14T14:16:38;17.00;99.90
2477;DHT22;1249;51.270;6.756;2023-03-14T14:19:05;17.40;99.90
2477;DHT22;1249;51.270;6.756;2023-03-14T14:21:32;17.60;99.90
2477;DHT22;1249;51.270;6.756;2023-03-14T14:23:59;17.60;99.90
2477;DHT22;1249;51.270;6.756;2023-03-14T14:26:26;17.70;99.90
2477;DHT22;1249;51.270;6.756;2023-03-14T14:29:02;17.80;99.90
2477;DHT22;1249;51.270;6.756;2023-03-14T14:31:30;17.90;99.90
2477;DHT22;1249;51.270;6.756;2023-03-14T14:33:58;17.90;99.90
2477;DHT22;1249;51.270;6.756;2023-03-14T14:36:28;17.80;99.90
2477;DHT22;1249;51.270;6.756;2023-03-14T14:38:59;17.70;99.90
2477;DHT22;1249;51.270;6.756;2023-03-14T14:41:28;17.60;99.90
2477;DHT22;1249;51.270;6.756;2023-03-14T14:43:56;17.50;99.90
2477;DHT22;1249;51.270;6.756;2023-03-14T14:46:27;17.40;99.90
2477;DHT22;1249;51.270;6.756;2023-03-14T14:48:57;17.40;99.90
2477;DHT22;1249;51.270;6.756;2023-03-14T14:51:33;17.30;99.90
2477;DHT22;1249;51.270;6.756;2023-03-14T14:54:04;17.30;99.90
2477;DHT22;1249;51.270;6.756;2023-03-14T14:56:35;17.30;99.90
2477;DHT22;1249;51.270;6.756;2023-03-14T14:59:03;17.30;99.90
2477;DHT22;1249;51.270;6.756;2023-03-14T15:01:33;17.30;99.90
2477;DHT22;1249;51.270;6.756;2023-03-14T15:04:04;17.20;98.40
2477;DHT22;1249;51.270;6.756;2023-03-14T15:06:37;16.90;97.60
2477;DHT22;1249;51.270;6.756;2023-03-14T15:09:05;16.60;95.30
2477;DHT22;1249;51.270;6.756;2023-03-14T15:11:31;16.40;93.30
2477;DHT22;1249;51.270;6.756;2023-03-14T15:13:58;16.50;90.30
2477;DHT22;1249;51.270;6.756;2023-03-14T15:16:28;16.40;87.20
2477;DHT22;1249;51.270;6.756;2023-03-14T15:18:57;16.20;88.00
2477;DHT22;1249;51.270;6.756;2023-03-14T15:21:27;16.00;87.10
2477;DHT22;1249;51.270;6.756;2023-03-14T15:23:54;15.70;89.50
2477;DHT22;1249;51.270;6.756;2023-03-14T15:26:24;15.30;81.30
2477;DHT22;1249;51.270;6.756;2023-03-14T15:28:51;15.10;85.50
2477;DHT22;1249;51.270;6.756;2023-03-14T15:31:18;14.80;81.20
2477;DHT22;1249;51.270;6.756;2023-03-14T15:33:46;14.60;85.20
2477;DHT22;1249;51.270;6.756;2023-03-14T15:36:22;14.50;92.90
2477;DHT22;1249;51.270;6.756;2023-03-14T15:38:52;14.60;96.60
2477;DHT22;1249;51.270;6.756;2023-03-14T15:41:19;14.50;96.20
2477;DHT22;1249;51.270;6.756;2023-03-14T15:43:46;14.40;95.00
2477;DHT22;1249;51.270;6.756;2023-03-14T15:46:14;14.30;96.00
2477;DHT22;1249;51.270;6.756;2023-03-14T15:48:42;14.30;96.90
2477;DHT22;1249;51.270;6.756;2023-03-14T15:51:09;14.20;98.50
2477;DHT22;1249;51.270;6.756;2023-03-14T15:53:36;14.20;99.80
2477;DHT22;1249;51.270;6.756;2023-03-14T15:56:07;14.10;99.90
2477;DHT22;1249;51.270;6.756;2023-03-14T15:58:34;14.10;99.90
2477;DHT22;1249;51.270;6.756;2023-03-14T16:01:01;14.00;99.90
2477;DHT22;1249;51.270;6.756;2023-03-14T16:03:29;14.00;99.90
2477;DHT22;1249;51.270;6.756;2023-03-14T16:05:55;13.90;99.90
2477;DHT22;1249;51.270;6.756;2023-03-14T16:08:23;13.90;99.90
2477;DHT22;1249;51.270;6.756;2023-03-14T16:10:51;13.80;99.90
2477;DHT22;1249;51.270;6.756;2023-03-14T16:13:19;13.80;99.90
2477;DHT22;1249;51.270;6.756;2023-03-14T16:15:56;13.70;99.90
2477;DHT22;1249;51.270;6.756;2023-03-14T16:18:23;13.60;99.90
2477;DHT22;1249;51.270;6.756;2023-03-14T16:20:54;13.60;99.90
2477;DHT22;1249;51.270;6.756;2023-03-14T16:23:21;13.60;99.90